South Bisbee, Arizona
Current Conditions -  °F | °C
As of 6:56 AM on Tuesday 27 Jan 2015 (Local Time) from KDUG Reporting Station
Overcast Overcast  
Wind Chill: 44°   Ceiling: 6500
Heat Index: 46°   Visibility: 10mi
Dew Point: 30°   Wind: 5mph
Humidity: 54%   Direction: 330°NNW
Pressure: 30.29"   Gusts: NA
Location:  31.4799°N, 109.96°W
Report Text: KDUG 271356Z AUTO 33004KT 10SM FEW049 OVC065 08/M01 A3029 RMK AO2 SLP227 T00781011
Loading
Personal Weather Stations






























Interactive Weather Map New forecast layout! Learn more

10-Day Weather Forecast

Advertisements
Track Severe Weather on mobile